createdAt,value
2023-04-20T15:41:57.961Z,100396.03
2023-04-20T15:47:26.586Z,100396.38
2023-04-20T15:52:55.108Z,100399.84
2023-04-20T15:58:23.419Z,100391.19
2023-04-20T16:03:52.023Z,100383.69
2023-04-20T16:09:20.759Z,100392.44
2023-04-20T16:14:49.833Z,100385.59
2023-04-20T16:20:18.780Z,100395.72
2023-04-20T16:25:46.823Z,100396.03
2023-04-20T16:31:14.663Z,100405.28
2023-04-20T16:36:43.520Z,100390.06
2023-04-20T16:42:10.610Z,100397.06
2023-04-20T16:47:37.875Z,100397.81
2023-04-20T16:53:05.708Z,100390.75
2023-04-20T16:58:36.645Z,100397.63
2023-04-20T17:04:21.395Z,100403.53
2023-04-20T17:10:00.308Z,100396.19
2023-04-20T17:16:20.792Z,100402.63
2023-04-20T17:21:48.498Z,100396.78
2023-04-20T17:27:16.333Z,100408.81
2023-04-20T17:32:44.585Z,100409.50
2023-04-20T17:38:11.641Z,100404.50
2023-04-20T17:43:40.698Z,100412.91
2023-04-20T17:49:07.851Z,100407.00
2023-04-20T17:54:35.872Z,100409.84
2023-04-20T18:00:04.051Z,100403.38
2023-04-20T18:05:39.093Z,100405.25
2023-04-20T18:11:07.538Z,100404.50
2023-04-20T18:16:34.900Z,100405.13
2023-04-20T18:22:02.446Z,100416.38
2023-04-20T18:27:30.385Z,100414.84
2023-04-20T18:32:58.295Z,100415.53
2023-04-20T18:38:25.875Z,100418.72
2023-04-20T18:43:54.146Z,100423.03
2023-04-20T18:49:22.006Z,100422.97
2023-04-20T18:54:49.065Z,100421.44
2023-04-20T19:00:16.683Z,100422.38
2023-04-20T19:05:44.041Z,100423.84
2023-04-20T19:11:12.266Z,100426.03
2023-04-20T19:16:39.875Z,100441.31
2023-04-20T19:22:07.195Z,100433.69
2023-04-20T19:27:34.954Z,100429.69
2023-04-20T19:33:07.408Z,100430.72
2023-04-20T19:38:37.697Z,100431.53
2023-04-20T19:44:07.169Z,100425.81
2023-04-20T19:49:35.503Z,100441.88
2023-04-20T19:55:04.894Z,100439.16
2023-04-20T20:00:32.345Z,100442.16
2023-04-20T20:06:00.928Z,100439.31
2023-04-20T20:11:28.766Z,100435.88
2023-04-20T20:16:58.830Z,100437.81
2023-04-20T20:22:27.404Z,100433.94
2023-04-20T20:27:55.145Z,100431.19
2023-04-20T20:33:22.547Z,100432.75
2023-04-20T20:38:54.278Z,100440.13
2023-04-20T20:44:22.407Z,100434.97
2023-04-20T20:49:50.334Z,100438.81
2023-04-20T20:55:18.399Z,100445.63
2023-04-20T21:00:47.594Z,100439.31
2023-04-20T21:06:16.396Z,100441.72
2023-04-20T21:11:44.018Z,100447.41
2023-04-20T21:17:11.279Z,100441.81
2023-04-20T21:22:38.697Z,100443.09
2023-04-20T21:28:06.140Z,100439.06
2023-04-20T21:33:36.515Z,100435.97
2023-04-20T21:39:04.264Z,100439.56
2023-04-20T21:44:31.440Z,100438.88
2023-04-20T21:49:58.277Z,100442.03
2023-04-20T21:55:25.694Z,100441.09
2023-04-20T22:00:53.450Z,100434.59
2023-04-20T22:06:20.729Z,100433.63
2023-04-20T22:11:50.158Z,100435.53
2023-04-20T22:17:17.958Z,100431.63
2023-04-20T22:22:46.745Z,100432.66
2023-04-20T22:28:14.679Z,100420.81
2023-04-20T22:33:42.593Z,100426.03
2023-04-20T22:39:09.890Z,100431.22
2023-04-20T22:44:37.452Z,100429.69
2023-04-20T22:50:06.278Z,100425.00
2023-04-20T22:55:33.374Z,100419.59
2023-04-20T23:01:01.142Z,100423.44
2023-04-20T23:06:29.902Z,100416.53
2023-04-20T23:12:00.068Z,100411.75
2023-04-20T23:17:29.048Z,100410.31
2023-04-20T23:22:56.835Z,100410.41
2023-04-20T23:28:24.339Z,100411.16
2023-04-20T23:33:51.835Z,100409.13
2023-04-20T23:39:20.979Z,100408.06
2023-04-20T23:44:48.663Z,100405.63
2023-04-20T23:50:16.088Z,100400.47
2023-04-20T23:55:48.423Z,100397.25
